Time;durP1;ratioP1;P1;durP2;ratioP2;P2;SDS_P1;SDS_P2;PMS_P1;PMS_P2;Temp;Humidity;BMP_temperature;BMP_pressure;BME280_temperature;BME280_humidity;BME280_pressure;Samples;Min_cycle;Max_cycle;Signal;HPM_P1;HPM_P2
2022/08/07 00:00:31;;;;;;;3.87;1.40;;;20.20;54.30;;;;;;2011165;29;20061;-84
2022/08/07 00:01:32;;;;;;;3.67;1.17;;;20.20;54.30;;;;;;2005481;29;20042;-83
2022/08/07 00:02:33;;;;;;;3.00;1.40;;;20.20;54.40;;;;;;2011296;29;20371;-82
2022/08/07 00:03:34;;;;;;;4.10;1.57;;;20.20;54.30;;;;;;2011090;29;20072;-84
2022/08/07 00:04:34;;;;;;;3.47;1.63;;;20.20;54.30;;;;;;2011004;29;20041;-83
2022/08/07 00:05:36;;;;;;;1.93;1.13;;;20.20;54.30;;;;;;2018783;29;20044;-81
2022/08/07 00:06:38;;;;;;;2.45;1.23;;;20.20;54.40;;;;;;2018636;29;20040;-82
2022/08/07 00:07:39;;;;;;;2.80;1.20;;;20.20;54.30;;;;;;2002497;29;20380;-82
2022/08/07 00:08:39;;;;;;;2.87;1.30;;;20.20;54.30;;;;;;2011011;29;20033;-82
2022/08/07 00:09:40;;;;;;;2.07;1.10;;;20.20;54.40;;;;;;2011218;29;20026;-82
2022/08/07 00:10:41;;;;;;;2.67;1.20;;;20.20;54.30;;;;;;2018742;29;20120;-82
2022/08/07 00:11:42;;;;;;;2.80;1.50;;;20.20;54.10;;;;;;2003393;29;20521;-81
2022/08/07 00:12:43;;;;;;;2.27;1.17;;;20.20;54.20;;;;;;2011190;29;20120;-83
2022/08/07 00:13:46;;;;;;;4.43;1.50;;;20.20;54.20;;;;;;2018661;29;20382;-83
2022/08/07 00:14:47;;;;;;;3.20;1.38;;;20.20;54.20;;;;;;2010229;29;20033;-81
2022/08/07 00:15:49;;;;;;;3.03;1.33;;;20.20;54.20;;;;;;2003434;29;20293;-83
2022/08/07 00:16:50;;;;;;;6.25;1.60;;;20.10;54.10;;;;;;2003429;29;20034;-81
2022/08/07 00:17:51;;;;;;;3.77;1.37;;;20.10;54.20;;;;;;2011069;29;20824;-83
2022/08/07 00:18:52;;;;;;;3.37;1.80;;;20.10;54.20;;;;;;2018627;29;20491;-83
2022/08/07 00:19:52;;;;;;;6.37;1.40;;;20.10;54.20;;;;;;2018779;29;20380;-82
2022/08/07 00:20:58;;;;;;;3.60;1.30;;;20.20;54.20;;;;;;2010174;29;20304;-83
2022/08/07 00:21:58;;;;;;;4.88;1.02;;;20.10;54.30;;;;;;2018694;29;20032;-83
2022/08/07 00:22:59;;;;;;;3.47;1.17;;;20.10;54.30;;;;;;2011107;29;20364;-84
2022/08/07 00:24:00;;;;;;;5.03;1.43;;;20.10;54.30;;;;;;2018681;29;20043;-83
2022/08/07 00:25:06;;;;;;;2.13;1.30;;;20.10;54.30;;;;;;2003294;29;20114;-82
2022/08/07 00:26:09;;;;;;;2.83;1.30;;;20.10;54.20;;;;;;2004581;29;20044;-82
2022/08/07 00:27:10;;;;;;;2.97;1.02;;;20.10;54.20;;;;;;2011225;29;20264;-82
2022/08/07 00:28:10;;;;;;;2.23;1.50;;;20.10;54.20;;;;;;2010182;29;20268;-83
2022/08/07 00:29:11;;;;;;;2.90;1.20;;;20.10;54.30;;;;;;2020630;29;20384;-83
2022/08/07 00:30:12;;;;;;;2.40;1.13;;;20.10;54.30;;;;;;2026308;29;20051;-84
2022/08/07 00:31:13;;;;;;;4.93;1.40;;;20.10;54.40;;;;;;2011015;29;20061;-82
2022/08/07 00:32:14;;;;;;;3.50;1.40;;;20.10;54.50;;;;;;2011018;29;20034;-82
2022/08/07 00:33:15;;;;;;;2.47;1.38;;;20.00;54.50;;;;;;2003455;29;20038;-82
2022/08/07 00:34:16;;;;;;;5.10;1.40;;;20.00;54.40;;;;;;2007463;29;20044;-83
2022/08/07 00:35:18;;;;;;;2.33;1.10;;;20.00;54.40;;;;;;2019335;29;20029;-82
2022/08/07 00:36:19;;;;;;;2.00;1.10;;;20.00;54.40;;;;;;2012499;29;20056;-82
2022/08/07 00:37:20;;;;;;;4.37;1.40;;;20.00;54.40;;;;;;2012511;29;20735;-83
2022/08/07 00:38:21;;;;;;;3.10;1.20;;;20.00;54.40;;;;;;2012545;29;20060;-83
2022/08/07 00:39:22;;;;;;;4.32;1.35;;;20.00;54.50;;;;;;2012423;29;20272;-83
2022/08/07 00:40:23;;;;;;;2.73;1.40;;;20.00;54.50;;;;;;2012686;29;20044;-82
2022/08/07 00:41:26;;;;;;;3.60;1.30;;;20.00;54.50;;;;;;2003866;29;20054;-82
2022/08/07 00:42:27;;;;;;;5.32;1.58;;;20.00;54.50;;;;;;2012740;29;20026;-84
2022/08/07 00:43:28;;;;;;;2.35;1.10;;;20.00;54.40;;;;;;2012465;29;20264;-82
2022/08/07 00:44:29;;;;;;;2.27;1.50;;;20.00;54.50;;;;;;2004926;29;20109;-84
2022/08/07 00:45:30;;;;;;;2.60;1.30;;;20.00;54.40;;;;;;2004974;29;20137;-82
2022/08/07 00:46:31;;;;;;;2.50;1.10;;;20.00;54.40;;;;;;2012599;29;20158;-81
2022/08/07 00:47:31;;;;;;;1.57;1.10;;;19.90;54.20;;;;;;2011527;29;20025;-83
2022/08/07 00:48:32;;;;;;;3.30;1.23;;;19.90;54.30;;;;;;2012631;29;20044;-81
2022/08/07 00:49:33;;;;;;;4.57;1.20;;;19.90;54.30;;;;;;2012543;29;20033;-82
2022/08/07 00:50:34;;;;;;;2.90;1.27;;;19.90;54.30;;;;;;2012612;29;20052;-81
2022/08/07 00:51:35;;;;;;;6.13;1.50;;;19.90;54.40;;;;;;2009726;29;20493;-83
2022/08/07 00:52:36;;;;;;;2.00;0.97;;;19.90;54.30;;;;;;2020125;29;20040;-83
2022/08/07 00:53:37;;;;;;;2.50;1.20;;;19.90;54.30;;;;;;2012640;29;20078;-82
2022/08/07 00:54:38;;;;;;;3.20;1.10;;;19.90;54.20;;;;;;2006266;29;20451;-83
2022/08/07 00:55:38;;;;;;;3.88;1.38;;;19.90;54.10;;;;;;2012628;29;20022;-83
2022/08/07 00:56:40;;;;;;;1.77;0.93;;;19.90;54.10;;;;;;2012414;29;20049;-83
2022/08/07 00:57:42;;;;;;;2.50;1.10;;;19.90;54.00;;;;;;2012631;29;20040;-82
2022/08/07 00:58:43;;;;;;;3.08;1.33;;;19.90;54.00;;;;;;2012899;29;20037;-82
2022/08/07 00:59:44;;;;;;;3.47;1.00;;;19.90;54.00;;;;;;2014962;29;20104;-82
2022/08/07 01:00:45;;;;;;;1.60;0.80;;;19.90;54.00;;;;;;2019078;29;20044;-82
2022/08/07 01:01:47;;;;;;;3.00;1.00;;;19.90;54.00;;;;;;2019912;29;20426;-84
2022/08/07 01:02:48;;;;;;;3.88;1.30;;;19.90;54.00;;;;;;2012354;29;20460;-81
2022/08/07 01:03:50;;;;;;;1.87;0.97;;;19.90;53.90;;;;;;2019705;29;20056;-83
2022/08/07 01:04:52;;;;;;;4.85;1.30;;;19.90;53.90;;;;;;2027509;29;20024;-83
2022/08/07 01:05:54;;;;;;;2.53;1.10;;;19.90;53.90;;;;;;2012378;29;20317;-80
2022/08/07 01:06:55;;;;;;;2.58;1.10;;;19.90;53.90;;;;;;2004879;29;20389;-82
2022/08/07 01:07:56;;;;;;;2.70;1.30;;;19.80;53.90;;;;;;2003746;29;20269;-82
2022/08/07 01:08:58;;;;;;;3.43;1.27;;;19.90;54.00;;;;;;2004656;29;20069;-83
2022/08/07 01:10:00;;;;;;;2.33;1.30;;;19.90;54.00;;;;;;2012585;29;20025;-84
2022/08/07 01:11:01;;;;;;;3.95;1.10;;;19.80;53.80;;;;;;2020055;29;20279;-83
2022/08/07 01:12:04;;;;;;;3.47;1.20;;;19.80;53.80;;;;;;2025044;29;20049;-83
2022/08/07 01:13:05;;;;;;;4.70;1.10;;;19.80;53.90;;;;;;2012330;29;20288;-84
2022/08/07 01:14:07;;;;;;;3.17;1.53;;;19.80;53.90;;;;;;2003432;29;20056;-82
2022/08/07 01:15:09;;;;;;;6.70;1.30;;;19.70;53.90;;;;;;2002907;29;20038;-84
2022/08/07 01:16:10;;;;;;;1.90;1.10;;;19.80;54.00;;;;;;2004635;29;20729;-84
2022/08/07 01:17:11;;;;;;;2.83;1.23;;;19.80;53.90;;;;;;2010034;29;20034;-83
2022/08/07 01:18:13;;;;;;;3.28;1.00;;;19.80;54.00;;;;;;2017960;29;20172;-82
2022/08/07 01:19:18;;;;;;;3.05;1.13;;;19.70;54.00;;;;;;2018714;29;20036;-82
2022/08/07 01:20:29;;;;;;;4.78;1.20;;;19.70;54.00;;;;;;1997939;29;20041;-84
2022/08/07 01:21:30;;;;;;;2.92;1.08;;;19.70;54.10;;;;;;2013886;29;20257;-83
2022/08/07 01:22:31;;;;;;;3.78;1.33;;;19.70;54.10;;;;;;2019712;29;20703;-83
2022/08/07 01:23:33;;;;;;;3.13;1.30;;;19.70;54.10;;;;;;2012017;29;20026;-84
2022/08/07 01:24:34;;;;;;;3.47;1.25;;;19.70;54.10;;;;;;2012277;29;20269;-84
2022/08/07 01:25:35;;;;;;;2.45;1.27;;;19.70;54.10;;;;;;2020023;29;20201;-83
2022/08/07 01:26:36;;;;;;;5.53;1.38;;;19.70;54.10;;;;;;2019806;29;20053;-84
2022/08/07 01:27:37;;;;;;;8.07;1.30;;;19.70;54.20;;;;;;2018903;29;20376;-83
2022/08/07 01:28:45;;;;;;;3.00;1.23;;;19.70;54.10;;;;;;2012185;29;20033;-82
2022/08/07 01:29:48;;;;;;;2.50;1.40;;;19.70;54.10;;;;;;2006742;29;20034;-84
2022/08/07 01:30:49;;;;;;;1.80;1.00;;;19.70;54.10;;;;;;2012160;29;20324;-84
2022/08/07 01:31:51;;;;;;;4.25;1.38;;;19.70;54.10;;;;;;2012282;29;20041;-81
2022/08/07 01:32:52;;;;;;;2.55;1.25;;;19.70;54.10;;;;;;2019838;29;20025;-81
2022/08/07 01:33:53;;;;;;;1.60;1.10;;;19.60;54.10;;;;;;2019876;29;20459;-82
2022/08/07 01:34:55;;;;;;;3.10;1.35;;;19.70;54.10;;;;;;2018115;29;20096;-84
2022/08/07 01:35:59;;;;;;;4.00;1.20;;;19.70;54.10;;;;;;2010767;29;20173;-83
2022/08/07 01:37:01;;;;;;;2.95;1.40;;;19.60;54.00;;;;;;2012502;29;20292;-83
2022/08/07 01:38:03;;;;;;;4.00;1.20;;;19.70;54.10;;;;;;2007251;29;20333;-84
2022/08/07 01:39:04;;;;;;;4.53;1.30;;;19.60;54.10;;;;;;2004578;29;20341;-82
2022/08/07 01:40:06;;;;;;;3.03;1.23;;;19.60;54.10;;;;;;2004439;29;20025;-84
2022/08/07 01:41:10;;;;;;;3.60;1.20;;;19.60;54.10;;;;;;2011679;29;20109;-83
2022/08/07 01:42:13;;;;;;;2.20;1.10;;;19.60;54.10;;;;;;2019454;29;20425;-81
2022/08/07 01:43:14;;;;;;;3.13;1.30;;;19.60;54.10;;;;;;2014015;29;20037;-81
2022/08/07 01:44:15;;;;;;;3.33;1.40;;;19.60;54.10;;;;;;2012409;29;20601;-83
2022/08/07 01:45:19;;;;;;;1.95;1.00;;;19.60;54.10;;;;;;2027426;29;20153;-84
2022/08/07 01:46:25;;;;;;;3.28;1.50;;;19.60;54.20;;;;;;2016657;29;20073;-81
2022/08/07 01:47:26;;;;;;;4.78;1.30;;;19.60;54.20;;;;;;2010450;29;20257;-82
2022/08/07 01:48:28;;;;;;;3.45;1.42;;;19.60;54.30;;;;;;2012023;29;20412;-84
2022/08/07 01:49:29;;;;;;;3.95;1.08;;;19.60;54.20;;;;;;2011954;29;20025;-82
2022/08/07 01:50:31;;;;;;;3.53;1.40;;;19.60;54.20;;;;;;2012125;29;20118;-83
2022/08/07 01:51:34;;;;;;;3.53;1.20;;;19.60;54.20;;;;;;2011998;29;20025;-83
2022/08/07 01:52:38;;;;;;;3.78;1.63;;;19.60;54.30;;;;;;2012405;29;20370;-83
2022/08/07 01:53:48;;;;;;;1.83;1.20;;;19.60;54.30;;;;;;2012103;29;20256;-84
2022/08/07 01:54:53;;;;;;;3.72;1.33;;;19.50;54.30;;;;;;2006137;29;20593;-82
2022/08/07 01:56:21;;;;;;;5.53;1.38;;;19.50;54.40;;;;;;2004319;29;20030;-82
2022/08/07 01:57:33;;;;;;;2.97;1.30;;;19.50;54.40;;;;;;2004320;29;20306;-82
2022/08/07 01:58:40;;;;;;;4.60;1.38;;;19.50;54.50;;;;;;2011084;29;20279;-83
2022/08/07 01:59:56;;;;;;;3.88;1.23;;;19.50;54.50;;;;;;2012723;29;20126;-83
2022/08/07 02:01:02;;;;;;;1.85;1.33;;;19.50;54.50;;;;;;2003313;29;20269;-82
2022/08/07 02:02:10;;;;;;;3.13;1.50;;;19.50;54.50;;;;;;2005491;29;20257;-83
2022/08/07 02:03:14;;;;;;;4.03;1.30;;;19.50;54.60;;;;;;2005543;29;20329;-82
2022/08/07 02:04:27;;;;;;;5.30;1.30;;;19.50;54.60;;;;;;2013211;29;20272;-83
2022/08/07 02:05:36;;;;;;;5.88;1.33;;;19.50;54.70;;;;;;2012824;29;20672;-83
2022/08/07 02:06:40;;;;;;;4.13;1.27;;;19.50;54.70;;;;;;2014468;29;20747;-83
2022/08/07 02:07:51;;;;;;;2.45;1.17;;;19.50;54.60;;;;;;2026248;29;20282;-83
2022/08/07 02:08:58;;;;;;;2.45;1.20;;;19.40;54.60;;;;;;2011766;29;20265;-84
2022/08/07 02:10:02;;;;;;;2.55;1.13;;;19.40;54.60;;;;;;2013459;29;20265;-84
2022/08/07 02:11:10;;;;;;;2.55;0.93;;;19.50;54.80;;;;;;2026183;29;20639;-83
2022/08/07 02:12:16;;;;;;;4.95;1.23;;;19.40;54.70;;;;;;2011765;29;20616;-82
2022/08/07 02:13:22;;;;;;;2.90;1.30;;;19.40;54.70;;;;;;1998784;29;20265;-82
2022/08/07 02:14:27;;;;;;;5.05;1.23;;;19.40;54.80;;;;;;2004229;29;20372;-83
2022/08/07 02:15:29;;;;;;;6.32;1.40;;;19.40;54.80;;;;;;2001783;29;20269;-83
2022/08/07 02:16:30;;;;;;;;;;;19.40;54.80;;;;;;2004610;29;20070;-83
2022/08/07 02:17:32;;;;;;;6.82;1.33;;;19.40;54.80;;;;;;2004345;29;19923;-83
2022/08/07 02:18:36;;;;;;;3.97;1.20;;;19.40;54.90;;;;;;2011663;29;20280;-85
2022/08/07 02:19:40;;;;;;;8.77;1.20;;;19.40;55.00;;;;;;2012183;29;20037;-83
2022/08/07 02:20:42;;;;;;;2.15;1.30;;;19.40;55.00;;;;;;2010587;29;20582;-82
2022/08/07 02:21:44;;;;;;;4.43;1.60;;;19.40;55.70;;;;;;2011986;29;20755;-85
2022/08/07 02:22:46;;;;;;;3.03;1.30;;;19.40;55.10;;;;;;2012009;29;20268;-82
2022/08/07 02:23:47;;;;;;;3.60;1.40;;;19.40;55.10;;;;;;2004213;29;20092;-84
2022/08/07 02:24:51;;;;;;;3.20;1.33;;;19.30;55.00;;;;;;2004225;29;20030;-82
2022/08/07 02:25:54;;;;;;;4.97;1.55;;;19.40;55.10;;;;;;2002714;29;20037;-84
2022/08/07 02:26:59;;;;;;;2.72;1.48;;;19.40;55.10;;;;;;2012379;29;20273;-82
2022/08/07 02:28:01;;;;;;;3.60;1.40;;;19.40;55.10;;;;;;2010631;29;20401;-82
2022/08/07 02:29:05;;;;;;;1.95;1.20;;;19.30;55.10;;;;;;2004203;29;20304;-82
2022/08/07 02:30:07;;;;;;;3.55;1.70;;;19.40;55.20;;;;;;2004401;29;20030;-84
2022/08/07 02:31:10;;;;;;;1.90;1.10;;;19.40;55.10;;;;;;2004097;29;20741;-83
2022/08/07 02:32:13;;;;;;;2.42;1.30;;;19.40;55.20;;;;;;2004715;29;20352;-81
2022/08/07 02:33:17;;;;;;;2.88;1.25;;;19.40;55.20;;;;;;2004491;29;20273;-84
2022/08/07 02:34:18;;;;;;;2.50;1.02;;;19.30;55.20;;;;;;2003852;29;20276;-83
2022/08/07 02:35:27;;;;;;;3.22;1.10;;;19.30;55.30;;;;;;2012329;29;20268;-82
2022/08/07 02:36:32;;;;;;;5.07;1.40;;;19.30;55.20;;;;;;2011694;29;20260;-84
2022/08/07 02:37:39;;;;;;;3.33;1.20;;;19.30;55.20;;;;;;2015228;29;20276;-82
2022/08/07 02:38:43;;;;;;;1.42;1.08;;;19.30;55.30;;;;;;2012560;29;20355;-83
2022/08/07 02:39:44;;;;;;;;;;;19.30;55.40;;;;;;2011743;29;20314;-84
2022/08/07 02:40:50;;;;;;;3.95;1.15;;;19.30;55.40;;;;;;1998482;29;20253;-82
2022/08/07 02:41:52;;;;;;;2.50;1.40;;;19.30;55.40;;;;;;2004053;29;20297;-82
2022/08/07 02:42:55;;;;;;;3.63;1.50;;;19.30;55.40;;;;;;2011684;29;20090;-84
2022/08/07 02:43:58;;;;;;;2.40;1.50;;;19.30;55.40;;;;;;2011759;29;20093;-85
2022/08/07 02:45:03;;;;;;;5.18;1.40;;;19.30;55.40;;;;;;2004332;29;20265;-83
2022/08/07 02:46:06;;;;;;;3.55;1.48;;;19.20;55.40;;;;;;2004435;29;20261;-83
2022/08/07 02:47:11;;;;;;;3.97;1.50;;;19.30;55.50;;;;;;1997544;29;20293;-84
2022/08/07 02:48:12;;;;;;;3.75;1.45;;;19.20;55.40;;;;;;2010482;29;20271;-82
2022/08/07 02:49:13;;;;;;;2.42;1.20;;;19.20;55.50;;;;;;2013106;29;20433;-83
2022/08/07 02:50:14;;;;;;;4.13;1.50;;;19.20;55.50;;;;;;2019323;29;20124;-82
2022/08/07 02:51:20;;;;;;;4.63;1.30;;;19.20;55.50;;;;;;2019170;29;20052;-82
2022/08/07 02:52:41;;;;;;;2.28;1.70;;;19.20;55.60;;;;;;2019828;29;20043;-83
2022/08/07 02:53:44;;;;;;;5.20;1.55;;;19.20;55.50;;;;;;2006393;29;20361;-84
2022/08/07 02:54:49;;;;;;;3.58;1.58;;;19.20;55.60;;;;;;2015950;29;20264;-83
2022/08/07 02:55:54;;;;;;;3.08;1.50;;;19.20;55.60;;;;;;2019506;29;20637;-83
2022/08/07 02:57:00;;;;;;;2.53;1.23;;;19.20;55.70;;;;;;2011473;29;20363;-84
2022/08/07 02:58:09;;;;;;;7.72;1.80;;;19.20;55.70;;;;;;2008200;29;20306;-84
2022/08/07 02:59:15;;;;;;;7.32;1.70;;;19.20;55.70;;;;;;2010798;29;20280;-84
2022/08/07 03:00:16;;;;;;;3.70;1.42;;;19.20;55.80;;;;;;2011592;29;20288;-83
2022/08/07 03:01:20;;;;;;;2.53;1.30;;;19.10;55.80;;;;;;2005736;29;20269;-84
2022/08/07 03:02:21;;;;;;;2.42;1.17;;;19.20;55.90;;;;;;2019421;29;20264;-82
2022/08/07 03:03:25;;;;;;;2.65;1.38;;;19.10;56.00;;;;;;2026773;29;20328;-83
2022/08/07 03:04:29;;;;;;;4.28;1.45;;;19.10;56.00;;;;;;2004151;29;20041;-83
2022/08/07 03:05:30;;;;;;;3.88;1.58;;;19.10;56.00;;;;;;2004075;29;20331;-82
2022/08/07 03:06:31;;;;;;;2.50;1.40;;;19.10;56.10;;;;;;2003936;29;20301;-84
2022/08/07 03:07:33;;;;;;;3.35;1.60;;;19.10;56.20;;;;;;2010565;29;20265;-83
2022/08/07 03:08:34;;;;;;;3.63;1.20;;;19.10;56.30;;;;;;2011522;29;20077;-82
2022/08/07 03:09:36;;;;;;;3.58;1.42;;;19.10;56.20;;;;;;2011584;29;20061;-82
2022/08/07 03:10:38;;;;;;;2.63;1.35;;;19.10;56.30;;;;;;2011501;29;20464;-84
2022/08/07 03:11:40;;;;;;;2.88;1.40;;;19.10;56.30;;;;;;2004259;29;20022;-83
2022/08/07 03:12:45;;;;;;;2.75;1.27;;;19.00;56.20;;;;;;2011825;29;20271;-81
2022/08/07 03:13:48;;;;;;;3.38;1.50;;;19.00;56.40;;;;;;2011960;29;20585;-85
2022/08/07 03:14:50;;;;;;;6.45;1.52;;;19.00;56.30;;;;;;2005020;29;20333;-83
2022/08/07 03:15:51;;;;;;;;;;;19.00;56.40;;;;;;2019610;29;20143;-84
2022/08/07 03:16:52;;;;;;;3.30;1.13;;;19.00;56.40;;;;;;2011171;29;19916;-83
2022/08/07 03:17:53;;;;;;;2.55;1.20;;;19.00;56.40;;;;;;2011534;29;20053;-84
2022/08/07 03:18:55;;;;;;;2.70;1.35;;;19.00;56.50;;;;;;2010760;29;20053;-84
2022/08/07 03:19:56;;;;;;;4.10;1.30;;;19.00;56.50;;;;;;2018920;29;20039;-84
2022/08/07 03:21:01;;;;;;;4.53;1.35;;;19.00;56.50;;;;;;2003104;29;20053;-84
2022/08/07 03:22:04;;;;;;;3.75;1.50;;;19.00;56.50;;;;;;2003780;29;20258;-84
2022/08/07 03:23:08;;;;;;;3.85;1.60;;;19.00;56.50;;;;;;2004196;29;20038;-82
2022/08/07 03:24:09;;;;;;;3.13;1.48;;;19.00;56.60;;;;;;2004042;29;20275;-84
2022/08/07 03:25:10;;;;;;;1.90;1.30;;;19.00;56.60;;;;;;2003677;29;20597;-83
2022/08/07 03:26:18;;;;;;;3.13;1.60;;;19.00;56.60;;;;;;2012032;29;20342;-82
2022/08/07 03:27:19;;;;;;;3.53;1.48;;;18.90;56.60;;;;;;2016400;29;20283;-84
2022/08/07 03:28:21;;;;;;;2.58;1.40;;;19.00;56.70;;;;;;2019029;29;20275;-84
2022/08/07 03:29:23;;;;;;;4.97;1.50;;;19.00;56.70;;;;;;2011285;29;20268;-83
2022/08/07 03:30:25;;;;;;;2.97;1.25;;;18.90;56.70;;;;;;2019103;29;20089;-84
2022/08/07 03:31:28;;;;;;;3.90;1.58;;;18.90;56.70;;;;;;2018582;29;20499;-83
2022/08/07 03:32:38;;;;;;;3.00;1.65;;;18.90;56.80;;;;;;2011490;29;20840;-82
2022/08/07 03:33:39;;;;;;;4.18;1.80;;;18.90;56.80;;;;;;2011647;29;20291;-84
2022/08/07 03:34:43;;;;;;;2.63;1.63;;;18.90;56.90;;;;;;2002559;29;20310;-84
2022/08/07 03:35:45;;;;;;;3.45;1.70;;;18.90;56.90;;;;;;2004384;29;20042;-82
2022/08/07 03:36:47;;;;;;;3.55;1.65;;;18.90;56.90;;;;;;2003686;29;20289;-82
2022/08/07 03:38:00;;;;;;;;;;;18.90;56.90;;;;;;2016899;29;20021;-84
2022/08/07 03:39:08;;;;;;;2.95;1.15;;;18.90;56.90;;;;;;2013213;29;19908;-83
2022/08/07 03:40:10;;;;;;;3.40;1.40;;;18.90;56.90;;;;;;2019245;29;20317;-83
2022/08/07 03:41:13;;;;;;;4.05;1.70;;;18.90;57.00;;;;;;2002517;29;20262;-83
2022/08/07 03:42:16;;;;;;;3.60;1.58;;;18.90;56.90;;;;;;2011547;29;20521;-83
2022/08/07 03:43:17;;;;;;;4.22;1.63;;;18.90;56.90;;;;;;2018862;29;20384;-81
2022/08/07 03:44:22;;;;;;;1.75;1.27;;;18.90;56.90;;;;;;2014136;29;20271;-84
2022/08/07 03:45:25;;;;;;;3.55;1.55;;;18.80;56.90;;;;;;2011942;29;20275;-83
2022/08/07 03:46:27;;;;;;;4.32;1.60;;;18.80;56.90;;;;;;2018655;29;20380;-83
2022/08/07 03:47:29;;;;;;;5.82;1.42;;;18.80;56.90;;;;;;2017902;29;20284;-82
2022/08/07 03:48:33;;;;;;;3.33;1.50;;;18.80;56.90;;;;;;2003815;29;20030;-82
2022/08/07 03:49:34;;;;;;;2.67;1.60;;;18.80;57.00;;;;;;2011704;29;20846;-82
2022/08/07 03:50:36;;;;;;;4.68;1.45;;;18.80;57.10;;;;;;2026391;29;20846;-83
2022/08/07 03:51:38;;;;;;;3.53;1.58;;;18.80;57.10;;;;;;2004147;29;20026;-82
2022/08/07 03:52:41;;;;;;;3.35;1.55;;;18.80;57.10;;;;;;2012949;29;20041;-83
2022/08/07 03:53:43;;;;;;;4.18;1.42;;;18.80;57.20;;;;;;2019452;29;20036;-82
2022/08/07 03:54:45;;;;;;;3.35;1.15;;;18.80;57.20;;;;;;2017281;29;20312;-84
2022/08/07 03:55:48;;;;;;;4.57;1.40;;;18.80;57.20;;;;;;2003934;29;20029;-82
2022/08/07 03:56:52;;;;;;;3.75;1.83;;;18.80;57.30;;;;;;2003983;29;20030;-82
2022/08/07 03:57:54;;;;;;;3.00;1.67;;;18.80;57.30;;;;;;2011453;29;20273;-84
2022/08/07 03:58:56;;;;;;;5.82;1.77;;;18.80;57.30;;;;;;2011083;29;20269;-83
2022/08/07 03:59:57;;;;;;;;;;;18.80;57.40;;;;;;2004110;29;20037;-84
2022/08/07 04:00:58;;;;;;;5.18;1.40;;;18.80;57.40;;;;;;2009997;29;20125;-83
2022/08/07 04:02:00;;;;;;;2.60;1.60;;;18.70;57.30;;;;;;2003625;29;20284;-84
2022/08/07 04:03:02;;;;;;;2.70;1.55;;;18.70;57.40;;;;;;2006846;29;20029;-82
2022/08/07 04:04:09;;;;;;;3.22;1.50;;;18.70;57.40;;;;;;2018900;29;20267;-82
2022/08/07 04:05:10;;;;;;;4.85;1.58;;;18.70;57.50;;;;;;2011092;29;20264;-82
2022/08/07 04:06:12;;;;;;;;;;;18.70;57.50;;;;;;2013003;29;20433;-83
2022/08/07 04:07:16;;;;;;;5.97;1.90;;;18.70;57.50;;;;;;2011054;29;20347;-83
2022/08/07 04:08:20;;;;;;;3.28;1.88;;;18.70;57.50;;;;;;2004204;29;20265;-83
2022/08/07 04:09:22;;;;;;;3.47;1.85;;;18.70;57.50;;;;;;2019117;29;20299;-84
2022/08/07 04:10:23;;;;;;;3.35;1.95;;;18.70;57.50;;;;;;2018318;29;20260;-84
2022/08/07 04:11:25;;;;;;;3.75;1.67;;;18.70;57.60;;;;;;2011064;29;20128;-83
2022/08/07 04:12:28;;;;;;;5.45;1.63;;;18.70;57.60;;;;;;2003523;29;20030;-83
2022/08/07 04:13:31;;;;;;;6.45;1.80;;;18.70;57.60;;;;;;2011303;29;20041;-83
2022/08/07 04:14:33;;;;;;;;;;;18.70;57.60;;;;;;2010502;29;20271;-82
2022/08/07 04:15:34;;;;;;;5.10;2.03;;;18.70;57.70;;;;;;2011124;29;20271;-83
2022/08/07 04:16:35;;;;;;;6.53;2.22;;;18.70;57.70;;;;;;2010919;29;20278;-82
2022/08/07 04:17:38;;;;;;;4.78;2.35;;;18.60;57.70;;;;;;1996441;29;20049;-82
2022/08/07 04:18:39;;;;;;;3.97;2.22;;;18.60;57.80;;;;;;2003448;29;20289;-83
2022/08/07 04:19:41;;;;;;;5.90;2.38;;;18.60;57.80;;;;;;2011066;29;20044;-82
2022/08/07 04:20:42;;;;;;;6.15;2.70;;;18.60;57.80;;;;;;2002732;29;20030;-82
2022/08/07 04:21:43;;;;;;;5.65;2.45;;;18.60;57.80;;;;;;2011149;29;20264;-82
2022/08/07 04:22:45;;;;;;;4.70;2.25;;;18.60;57.80;;;;;;2011140;29;20038;-85
2022/08/07 04:23:46;;;;;;;3.38;1.88;;;18.60;57.80;;;;;;2016548;29;20021;-85
2022/08/07 04:24:49;;;;;;;12.52;2.25;;;18.60;57.80;;;;;;2011182;29;20097;-84
2022/08/07 04:25:51;;;;;;;5.22;2.00;;;18.60;57.70;;;;;;2011121;29;20061;-84
2022/08/07 04:26:52;;;;;;;6.57;2.22;;;18.60;57.80;;;;;;2011195;29;20265;-82
2022/08/07 04:27:53;;;;;;;5.47;2.45;;;18.60;57.80;;;;;;2016164;29;20260;-83
2022/08/07 04:28:54;;;;;;;3.83;1.90;;;18.60;57.90;;;;;;2010981;29;20036;-84
2022/08/07 04:29:55;;;;;;;4.27;1.60;;;18.60;57.90;;;;;;2011089;29;20120;-83
2022/08/07 04:30:56;;;;;;;3.90;1.80;;;18.60;57.90;;;;;;2008299;29;20030;-84
2022/08/07 04:32:02;;;;;;;5.20;1.85;;;18.60;57.90;;;;;;2011870;29;20044;-84
2022/08/07 04:33:08;;;;;;;5.45;2.45;;;18.60;57.90;;;;;;2018767;29;20370;-85
2022/08/07 04:34:11;;;;;;;5.68;2.17;;;18.60;57.90;;;;;;2010768;29;20038;-83
2022/08/07 04:35:13;;;;;;;4.28;2.10;;;18.60;57.90;;;;;;2003507;29;20280;-84
2022/08/07 04:36:14;;;;;;;6.65;2.28;;;18.50;57.90;;;;;;2003543;29;20185;-84
2022/08/07 04:37:16;;;;;;;4.18;1.90;;;18.50;58.00;;;;;;2011000;29;20384;-84
2022/08/07 04:38:17;;;;;;;3.00;1.95;;;18.50;58.00;;;;;;2003405;29;20026;-83
2022/08/07 04:39:21;;;;;;;4.80;2.00;;;18.50;58.00;;;;;;2007505;29;20044;-84
2022/08/07 04:40:22;;;;;;;2.85;1.77;;;18.50;58.10;;;;;;2010564;29;20271;-84
2022/08/07 04:41:23;;;;;;;3.85;1.55;;;18.50;58.10;;;;;;2009083;29;20061;-83
2022/08/07 04:42:29;;;;;;;3.80;1.90;;;18.50;58.20;;;;;;2018286;29;20445;-84
2022/08/07 04:43:34;;;;;;;2.63;1.58;;;18.50;58.30;;;;;;2018899;29;20279;-83
2022/08/07 04:44:35;;;;;;;7.38;2.80;;;18.50;58.20;;;;;;2003788;29;20691;-84
2022/08/07 04:46:22;;;;;;;4.22;1.83;;;18.50;58.20;;;;;;2003420;29;20357;-84
2022/08/07 04:47:32;;;;;;;2.22;1.67;;;18.50;58.30;;;;;;2007953;29;20033;-84
2022/08/07 04:48:38;;;;;;;4.57;1.98;;;18.50;58.30;;;;;;2004507;29;20310;-82
2022/08/07 04:49:57;;;;;;;4.82;1.88;;;18.50;58.30;;;;;;2004782;29;20276;-84
2022/08/07 04:51:12;;;;;;;3.00;1.40;;;18.50;58.40;;;;;;2018499;29;20300;-83
2022/08/07 04:52:37;;;;;;;2.83;1.70;;;18.50;58.30;;;;;;2012959;29;20272;-84
2022/08/07 04:53:51;;;;;;;4.43;1.70;;;18.40;58.30;;;;;;2011144;29;20300;-84
2022/08/07 04:55:01;;;;;;;1.88;1.45;;;18.40;58.30;;;;;;2008004;29;20329;-83
2022/08/07 04:56:24;;;;;;;3.40;1.83;;;18.40;58.40;;;;;;2010981;29;20341;-84
2022/08/07 04:57:34;;;;;;;4.13;2.00;;;18.40;59.00;;;;;;2001654;29;20283;-85
2022/08/07 04:58:50;;;;;;;3.30;1.65;;;18.40;58.40;;;;;;2005914;29;20437;-83
2022/08/07 05:00:05;;;;;;;5.43;2.15;;;18.40;58.50;;;;;;2008215;29;20747;-85
2022/08/07 05:01:31;;;;;;;3.23;1.60;;;18.40;58.50;;;;;;1998528;29;20270;-83
2022/08/07 05:03:04;;;;;;;7.93;2.03;;;18.40;58.50;;;;;;2014424;29;20268;-84
2022/08/07 05:04:11;;;;;;;5.68;1.60;;;18.40;58.60;;;;;;2003741;29;20261;-83
2022/08/07 05:05:22;;;;;;;4.40;1.35;;;18.30;58.50;;;;;;1997005;29;20254;-84
2022/08/07 05:06:30;;;;;;;4.60;1.48;;;18.30;58.50;;;;;;2000031;29;20306;-83
2022/08/07 05:07:45;;;;;;;3.65;1.70;;;18.30;58.50;;;;;;2004486;29;20289;-83
2022/08/07 05:09:09;;;;;;;5.68;1.98;;;18.40;58.60;;;;;;2020619;29;20821;-85
2022/08/07 05:10:23;;;;;;;2.92;1.40;;;18.40;58.70;;;;;;2018731;29;20389;-82
2022/08/07 05:11:31;;;;;;;4.15;1.83;;;18.30;58.60;;;;;;2019797;29;20272;-83
2022/08/07 05:12:55;;;;;;;2.92;1.50;;;18.30;58.60;;;;;;2011203;29;20280;-83
2022/08/07 05:14:25;;;;;;;2.65;1.48;;;18.40;58.70;;;;;;2002039;29;20360;-84
2022/08/07 05:15:30;;;;;;;4.22;1.60;;;18.30;58.70;;;;;;2010046;29;20344;-83
2022/08/07 05:16:36;;;;;;;4.88;1.70;;;18.30;58.70;;;;;;2019843;29;20283;-83
2022/08/07 05:17:37;;;;;;;4.88;1.50;;;18.30;58.80;;;;;;2025883;29;20607;-83
2022/08/07 05:19:00;;;;;;;4.05;1.60;;;18.30;58.80;;;;;;2026254;29;20280;-85
2022/08/07 05:20:02;;;;;;;5.18;1.83;;;18.30;58.80;;;;;;2010782;29;20034;-84
2022/08/07 05:21:08;;;;;;;4.65;1.70;;;18.30;58.80;;;;;;2010176;29;20276;-84
2022/08/07 05:22:11;;;;;;;3.30;1.70;;;18.30;58.90;;;;;;2018694;29;20456;-83
2022/08/07 05:23:46;;;;;;;4.40;1.88;;;18.30;58.90;;;;;;2020020;29;20272;-84
2022/08/07 05:24:50;;;;;;;4.28;1.85;;;18.30;58.90;;;;;;2023619;29;20611;-85
2022/08/07 05:25:52;;;;;;;4.15;1.90;;;18.30;59.00;;;;;;2019394;29;20351;-84
2022/08/07 05:26:58;;;;;;;6.43;2.10;;;18.30;59.10;;;;;;2019762;29;20347;-84
2022/08/07 05:28:01;;;;;;;4.20;1.83;;;18.30;59.10;;;;;;2011024;29;20322;-83
2022/08/07 05:29:06;;;;;;;2.70;1.35;;;18.30;59.10;;;;;;2012739;29;20359;-85
2022/08/07 05:30:09;;;;;;;4.05;1.63;;;18.30;59.10;;;;;;2019428;29;20607;-82
2022/08/07 05:31:12;;;;;;;3.38;1.75;;;18.30;59.00;;;;;;2005628;29;20281;-84
2022/08/07 05:32:17;;;;;;;4.93;1.63;;;18.30;59.00;;;;;;2006443;29;20430;-83
2022/08/07 05:33:20;;;;;;;3.40;1.50;;;18.30;59.00;;;;;;2012682;29;20348;-82
2022/08/07 05:34:23;;;;;;;2.17;1.60;;;18.30;59.00;;;;;;2011010;29;20318;-83